Time;durP1;ratioP1;P1;durP2;ratioP2;P2;SDS_P1;SDS_P2;PMS_P1;PMS_P2;Temp;Humidity;BMP_temperature;BMP_pressure;BME280_temperature;BME280_humidity;BME280_pressure;Samples;Min_cycle;Max_cycle;Signal;HPM_P1;HPM_P2
2022/03/27 00:00:00;;;;;;;23.53;12.47;;;;;;;6.44;100.00;61496.50;5093254;28;20507;-71
2022/03/27 00:02:27;;;;;;;38.70;13.73;;;;;;;6.32;100.00;61479.16;5093923;28;20449;-72
2022/03/27 00:04:56;;;;;;;33.27;13.43;;;;;;;6.34;100.00;61480.78;5093219;28;20948;-70
2022/03/27 00:07:23;;;;;;;30.13;13.73;;;;;;;6.22;100.00;61473.03;5092657;28;21091;-72
2022/03/27 00:09:50;;;;;;;27.60;14.63;;;;;;;6.12;100.00;61457.81;5093457;28;20491;-71
2022/03/27 00:12:18;;;;;;;32.50;16.13;;;;;;;6.07;100.00;61451.97;5092905;28;20499;-72
2022/03/27 00:14:45;;;;;;;28.00;14.13;;;;;;;5.92;100.00;61437.03;5092977;28;20943;-72
2022/03/27 00:17:12;;;;;;;31.97;15.40;;;;;;;5.78;100.00;61422.09;5091774;28;20509;-70
2022/03/27 00:19:38;;;;;;;34.77;14.73;;;;;;;5.73;100.00;61416.78;5092929;28;20920;-72
2022/03/27 00:22:07;;;;;;;45.40;15.73;;;;;;;5.76;100.00;61419.97;5092961;28;20578;-71
2022/03/27 00:24:34;;;;;;;31.63;15.03;;;;;;;5.80;100.00;61424.22;5093198;28;20442;-71
2022/03/27 00:27:00;;;;;;;29.63;15.67;;;;;;;5.82;100.00;61425.81;5092538;28;20527;-71
2022/03/27 00:29:27;;;;;;;31.30;14.70;;;;;;;5.76;100.00;61414.38;5092759;28;20473;-71
2022/03/27 00:31:54;;;;;;;34.33;14.60;;;;;;;5.35;100.00;61378.81;5092888;28;20437;-71
2022/03/27 00:34:22;;;;;;;34.43;15.13;;;;;;;5.74;100.00;61414.75;5092730;28;20503;-71
2022/03/27 00:36:50;;;;;;;33.23;15.60;;;;;;;5.70;100.00;61413.56;5092408;28;20442;-72
2022/03/27 00:39:18;;;;;;;33.40;15.27;;;;;;;5.75;100.00;61418.91;5092480;28;20533;-71
2022/03/27 00:41:45;;;;;;;34.73;15.43;;;;;;;5.74;100.00;61420.34;5092464;28;21020;-72
2022/03/27 00:44:12;;;;;;;41.20;16.33;;;;;;;5.77;100.00;61415.97;5092560;28;20491;-71
2022/03/27 00:46:38;;;;;;;41.33;17.10;;;;;;;5.75;100.00;61418.91;5092429;28;20498;-72
2022/03/27 00:49:05;;;;;;;30.47;15.87;;;;;;;5.68;100.00;61411.44;5092084;28;20507;-72
2022/03/27 00:51:33;;;;;;;35.03;17.33;;;;;;;5.55;100.00;61397.59;5092489;28;20489;-71
2022/03/27 00:54:00;;;;;;;35.70;15.70;;;;;;;5.69;100.00;61415.03;5092826;28;20495;-71
2022/03/27 00:56:28;;;;;;;33.23;15.20;;;;;;;5.65;100.00;61410.22;5092379;28;20437;-72
2022/03/27 00:58:55;;;;;;;32.57;15.70;;;;;;;5.48;100.00;61387.06;5092280;28;20434;-71
2022/03/27 01:01:25;;;;;;;36.30;16.30;;;;;;;5.42;100.00;61385.72;5092291;28;20434;-72
2022/03/27 01:03:54;;;;;;;31.80;14.90;;;;;;;5.46;100.00;61384.91;5092899;28;20437;-71
2022/03/27 01:06:31;;;;;;;33.63;14.77;;;;;;;5.56;100.00;61398.09;5091958;28;21058;-72
2022/03/27 01:11:44;;;;;;;35.93;15.83;;;;;;;5.45;100.00;61391.44;5094356;28;20429;-72
2022/03/27 01:14:13;;;;;;;38.30;16.30;;;;;;;5.46;100.00;61387.97;5092767;28;20552;-72
2022/03/27 01:16:42;;;;;;;34.53;15.03;;;;;;;5.43;100.00;61384.81;5091939;28;20485;-71
2022/03/27 01:19:11;;;;;;;35.70;14.87;;;;;;;5.20;100.00;61360.28;5092914;28;20434;-73
2022/03/27 01:21:42;;;;;;;34.13;13.87;;;;;;;5.45;100.00;61391.97;5092205;28;20440;-71
2022/03/27 01:24:09;;;;;;;27.40;13.67;;;;;;;5.35;100.00;61376.28;5092013;28;20940;-71
2022/03/27 01:26:38;;;;;;;31.33;13.20;;;;;;;5.34;100.00;61374.66;5090771;28;20944;-71
2022/03/27 01:29:04;;;;;;;18.37;8.73;;;;;;;5.45;100.00;61388.91;5092398;28;20485;-70
2022/03/27 01:31:33;;;;;;;17.50;9.13;;;;;;;5.62;100.00;61405.03;5091883;28;20955;-71
2022/03/27 01:34:01;;;;;;;24.50;11.60;;;;;;;5.49;100.00;61391.19;5092026;28;20434;-71
2022/03/27 01:36:34;;;;;;;29.97;13.13;;;;;;;5.57;100.00;61402.25;5092095;28;20465;-71
2022/03/27 01:39:05;;;;;;;29.00;13.13;;;;;;;5.48;100.00;61390.13;5091877;28;20438;-71
2022/03/27 01:41:32;;;;;;;29.27;12.53;;;;;;;5.34;100.00;61374.66;5091795;28;20446;-72
2022/03/27 01:44:01;;;;;;;26.97;12.53;;;;;;;5.30;100.00;61370.94;5092186;28;20536;-71
2022/03/27 01:46:31;;;;;;;23.17;11.90;;;;;;;5.40;100.00;61381.06;5091857;28;20782;-71
2022/03/27 01:49:00;;;;;;;25.10;10.83;;;;;;;5.32;100.00;61375.59;5091755;28;20479;-71
2022/03/27 01:51:27;;;;;;;22.00;10.83;;;;;;;5.48;100.00;61392.09;5091668;28;20822;-70
2022/03/27 01:53:55;;;;;;;28.10;13.63;;;;;;;5.04;100.00;61348.28;5091576;28;20525;-72
2022/03/27 01:56:24;;;;;;;46.83;15.60;;;;;;;5.31;100.00;61374.53;5091620;28;20445;-72
2022/03/27 01:58:51;;;;;;;36.03;14.37;;;;;;;4.96;100.00;61329.66;5091434;28;20460;-71
2022/03/27 02:01:19;;;;;;;27.13;12.83;;;;;;;4.88;100.00;61326.72;5091406;28;20454;-71
2022/03/27 02:03:46;;;;;;;36.87;13.60;;;;;;;4.83;100.00;61315.84;5091825;28;20817;-72
2022/03/27 02:06:13;;;;;;;29.97;13.87;;;;;;;4.80;100.00;61317.69;5095588;28;20465;-72
2022/03/27 02:08:40;;;;;;;35.33;15.17;;;;;;;4.58;100.00;61294.25;5095514;28;20489;-71
2022/03/27 02:11:08;;;;;;;33.87;15.80;;;;;;;4.11;100.00;61247.81;5094262;28;20504;-71
2022/03/27 02:13:37;;;;;;;34.70;15.20;;;;;;;4.46;100.00;61278.94;5095622;28;20865;-72
2022/03/27 02:16:04;;;;;;;30.63;14.20;;;;;;;4.41;100.00;61278.69;5095284;28;20473;-71
2022/03/27 02:18:32;;;;;;;33.20;14.10;;;;;;;4.30;100.00;61270.03;5095241;28;20446;-71
2022/03/27 02:21:01;;;;;;;29.30;13.07;;;;;;;4.42;100.00;61279.75;5095398;28;20928;-71
2022/03/27 02:23:29;;;;;;;26.10;11.57;;;;;;;4.42;100.00;61277.75;5095087;28;20783;-70
2022/03/27 02:25:57;;;;;;;30.40;11.83;;;;;;;4.59;100.00;61295.84;5095875;28;20526;-72
2022/03/27 02:28:24;;;;;;;31.80;12.37;;;;;;;4.61;100.00;61297.47;5093585;28;20484;-72
2022/03/27 02:30:54;;;;;;;26.80;11.23;;;;;;;4.61;100.00;61299.97;5095144;28;20449;-72
2022/03/27 02:33:21;;;;;;;22.07;9.83;;;;;;;4.56;100.00;61297.16;5095203;28;20441;-72
2022/03/27 02:35:47;;;;;;;19.60;10.20;;;;;;;4.61;100.00;61299.97;5095281;28;20856;-71
2022/03/27 02:38:15;;;;;;;18.30;9.10;;;;;;;4.55;100.00;61291.59;5094852;28;20499;-72
2022/03/27 02:40:43;;;;;;;23.80;9.27;;;;;;;2.45;100.00;61074.34;5094831;28;20449;-71
2022/03/27 02:43:10;;;;;;;33.37;12.07;;;;;;;4.65;100.00;61301.72;5094867;28;20507;-72
2022/03/27 02:45:38;;;;;;;24.20;11.53;;;;;;;4.65;100.00;61301.72;5094752;28;20532;-71
2022/03/27 02:48:07;;;;;;;21.07;10.90;;;;;;;4.65;100.00;61301.72;5094666;28;20469;-72
2022/03/27 02:50:37;;;;;;;21.70;10.07;;;;;;;4.73;100.00;61310.22;5094768;28;20853;-70
2022/03/27 02:53:04;;;;;;;20.90;9.00;;;;;;;4.54;100.00;61290.53;5094569;28;20438;-71
2022/03/27 02:55:31;;;;;;;20.33;8.80;;;;;;;4.68;100.00;61304.91;5094553;28;20437;-71
2022/03/27 02:57:59;;;;;;;17.50;8.60;;;;;;;4.64;100.00;61306.22;5094567;28;20442;-70
2022/03/27 03:00:26;;;;;;;25.30;9.17;;;;;;;4.66;100.00;61305.28;5094468;28;20441;-71
2022/03/27 03:02:53;;;;;;;20.73;8.30;;;;;;;4.67;100.00;61304.34;5094630;28;20529;-71
2022/03/27 03:05:22;;;;;;;22.27;8.93;;;;;;;4.69;100.00;61305.97;5094430;28;21029;-71
2022/03/27 03:07:50;;;;;;;19.50;8.27;;;;;;;4.66;100.00;61302.78;5095293;28;20433;-71
2022/03/27 03:10:17;;;;;;;18.53;8.47;;;;;;;4.73;100.00;61310.75;5094580;28;20450;-71
2022/03/27 03:12:45;;;;;;;17.07;8.20;;;;;;;4.77;100.00;61314.50;5094085;28;20893;-71
2022/03/27 03:15:13;;;;;;;27.23;9.23;;;;;;;4.74;100.00;61316.34;5094225;28;20467;-71
2022/03/27 03:17:39;;;;;;;19.13;8.17;;;;;;;4.68;100.00;61309.94;5094214;28;20499;-70
2022/03/27 03:20:08;;;;;;;18.17;8.70;;;;;;;4.72;100.00;61309.16;5093859;28;21009;-71
2022/03/27 03:22:37;;;;;;;21.87;8.43;;;;;;;4.66;100.00;61307.81;5094043;28;20512;-70
2022/03/27 03:25:05;;;;;;;15.83;7.37;;;;;;;4.66;100.00;61302.78;5093868;28;21025;-71
2022/03/27 03:27:32;;;;;;;15.60;7.27;;;;;;;4.62;100.00;61298.50;5094297;28;20449;-71
2022/03/27 03:30:00;;;;;;;13.53;7.43;;;;;;;4.55;100.00;61296.63;5093954;28;20497;-71
2022/03/27 03:32:28;;;;;;;19.57;7.63;;;;;;;4.60;100.00;61296.38;5093995;28;20963;-70
2022/03/27 03:34:55;;;;;;;17.97;7.23;;;;;;;4.65;100.00;61304.25;5093959;28;20437;-71
2022/03/27 03:37:23;;;;;;;21.67;7.73;;;;;;;4.70;100.00;61309.56;5094183;28;20433;-71
2022/03/27 03:39:51;;;;;;;18.07;7.50;;;;;;;3.94;100.00;61227.22;5093880;28;21023;-71
2022/03/27 03:42:19;;;;;;;23.10;7.70;;;;;;;4.74;100.00;61308.75;5092918;28;20438;-71
2022/03/27 03:44:46;;;;;;;16.73;7.40;;;;;;;4.62;100.00;61299.03;5093822;28;20806;-70
2022/03/27 03:47:14;;;;;;;21.13;7.90;;;;;;;4.72;100.00;61309.16;5093641;28;20948;-71
2022/03/27 03:49:42;;;;;;;26.17;8.70;;;;;;;4.69;100.00;61305.97;5093960;28;20535;-70
2022/03/27 03:52:09;;;;;;;21.63;8.33;;;;;;;4.64;100.00;61303.69;5093574;28;20438;-71
2022/03/27 03:54:36;;;;;;;22.30;7.87;;;;;;;4.57;100.00;61290.69;5093390;28;20446;-71
2022/03/27 03:57:06;;;;;;;17.27;7.70;;;;;;;4.75;100.00;61312.38;5093621;28;20446;-72
2022/03/27 03:59:36;;;;;;;24.83;7.73;;;;;;;4.14;100.00;61248.50;5093343;28;20494;-71
2022/03/27 04:02:03;;;;;;;20.30;7.67;;;;;;;4.78;100.00;61311.03;5093229;28;20442;-71
2022/03/27 04:04:31;;;;;;;26.67;8.40;;;;;;;4.79;100.00;61321.66;5093244;28;20947;-71
2022/03/27 04:06:58;;;;;;;19.90;8.07;;;;;;;4.55;100.00;61288.53;5093267;28;20463;-71
2022/03/27 04:09:25;;;;;;;35.67;9.73;;;;;;;4.46;100.00;61281.47;5092991;28;20485;-72
2022/03/27 04:11:52;;;;;;;24.90;9.13;;;;;;;4.48;100.00;61283.59;5093745;28;20434;-72
2022/03/27 04:14:22;;;;;;;29.47;8.27;;;;;;;4.40;100.00;61275.09;5093116;28;20442;-72
2022/03/27 04:16:49;;;;;;;24.73;8.37;;;;;;;4.35;100.00;61270.28;5093072;28;20441;-72
2022/03/27 04:19:16;;;;;;;22.73;9.03;;;;;;;4.22;100.00;61257.00;5092939;28;21013;-72
2022/03/27 04:21:44;;;;;;;31.67;9.03;;;;;;;4.27;100.00;61264.84;5092718;28;20442;-71
2022/03/27 04:24:11;;;;;;;27.57;9.43;;;;;;;4.14;100.00;61248.50;5093511;28;20507;-71
2022/03/27 04:26:39;;;;;;;36.23;11.20;;;;;;;3.31;100.00;61157.69;5092576;28;21001;-72
2022/03/27 04:29:06;;;;;;;48.20;18.27;;;;;;;3.82;100.00;61214.44;5092380;28;20492;-72
2022/03/27 04:31:34;;;;;;;35.97;14.40;;;;;;;3.90;100.00;61222.94;5093385;28;20825;-72
2022/03/27 04:34:01;;;;;;;32.13;13.70;;;;;;;3.60;100.00;61196.06;5092393;28;20868;-73
2022/03/27 04:36:28;;;;;;;41.33;15.67;;;;;;;3.47;100.00;61174.16;5093142;28;20533;-72
2022/03/27 04:38:55;;;;;;;44.73;16.70;;;;;;;3.30;100.00;61159.66;5092597;28;20507;-71
2022/03/27 04:41:23;;;;;;;47.67;14.97;;;;;;;3.33;100.00;61164.84;5092759;28;20868;-72
2022/03/27 04:43:50;;;;;;;41.87;15.47;;;;;;;3.38;100.00;61167.66;5092610;28;20476;-72
2022/03/27 04:46:18;;;;;;;42.53;14.50;;;;;;;3.26;100.00;61154.88;5092529;28;20445;-71
2022/03/27 04:48:47;;;;;;;41.27;14.40;;;;;;;3.24;100.00;61150.25;5092537;28;20489;-72
2022/03/27 04:51:16;;;;;;;43.63;15.20;;;;;;;3.21;100.00;61149.56;5092281;28;20920;-70
2022/03/27 04:53:43;;;;;;;34.60;14.37;;;;;;;3.15;100.00;61148.75;5092498;28;20461;-70
2022/03/27 04:56:10;;;;;;;38.47;15.03;;;;;;;3.19;100.00;61147.44;5094141;28;20807;-71
2022/03/27 04:58:37;;;;;;;36.37;15.67;;;;;;;2.79;100.00;61102.41;5094232;28;20939;-70
2022/03/27 05:01:04;;;;;;;43.70;16.33;;;;;;;3.02;100.00;61129.38;5091037;28;20828;-71
2022/03/27 05:03:31;;;;;;;55.60;17.60;;;;;;;2.93;100.00;61117.81;5092193;28;20868;-72
2022/03/27 05:06:00;;;;;;;38.13;14.87;;;;;;;3.25;100.00;61156.88;5092326;28;20519;-71
2022/03/27 05:08:30;;;;;;;40.57;14.80;;;;;;;3.44;100.00;61171.50;5092155;28;20533;-71
2022/03/27 05:10:56;;;;;;;38.20;16.17;;;;;;;3.54;100.00;61184.66;5092041;28;20886;-72
2022/03/27 05:13:23;;;;;;;56.47;21.47;;;;;;;3.52;100.00;61182.53;5092032;28;20442;-71
2022/03/27 05:15:50;;;;;;;46.97;17.03;;;;;;;3.63;100.00;61191.69;5091861;28;20518;-70
2022/03/27 05:18:17;;;;;;;47.97;17.37;;;;;;;3.72;100.00;61200.75;5092218;28;20441;-71
2022/03/27 05:20:44;;;;;;;36.77;15.93;;;;;;;3.39;100.00;61171.22;5091889;28;20433;-71
2022/03/27 05:23:12;;;;;;;41.87;15.63;;;;;;;4.11;100.00;61245.28;5092376;28;20460;-72
2022/03/27 05:25:45;;;;;;;36.87;15.20;;;;;;;4.19;100.00;61253.81;5092481;28;20433;-71
2022/03/27 05:28:14;;;;;;;41.83;16.20;;;;;;;4.47;100.00;61282.56;5092142;28;20452;-71
2022/03/27 05:30:41;;;;;;;38.93;15.50;;;;;;;4.46;100.00;61286.53;5091001;28;20485;-71
2022/03/27 05:33:08;;;;;;;32.33;14.00;;;;;;;4.51;100.00;61286.81;5091711;28;20444;-71
2022/03/27 05:35:35;;;;;;;34.10;13.03;;;;;;;4.56;100.00;61292.13;5091993;28;20441;-70
2022/03/27 05:38:03;;;;;;;28.67;12.27;;;;;;;4.68;100.00;61304.91;5090760;28;21029;-73
2022/03/27 05:40:31;;;;;;;34.40;11.83;;;;;;;4.82;100.00;61314.75;5094585;28;20453;-72
2022/03/27 05:42:58;;;;;;;22.73;12.40;;;;;;;4.71;100.00;61311.16;5095788;28;20491;-71
2022/03/27 05:45:25;;;;;;;34.00;12.80;;;;;;;4.91;100.00;61329.41;5095917;28;20433;-72
2022/03/27 05:47:53;;;;;;;30.90;13.50;;;;;;;5.33;100.00;61376.13;5095874;28;20528;-72
2022/03/27 05:50:22;;;;;;;31.87;13.23;;;;;;;5.59;100.00;61401.84;5095981;28;20485;-71
2022/03/27 05:52:50;;;;;;;22.43;11.63;;;;;;;5.56;100.00;61398.66;5096048;28;20490;-72
2022/03/27 05:55:17;;;;;;;30.07;12.50;;;;;;;5.83;100.00;61424.94;5095780;28;20448;-71
2022/03/27 05:57:48;;;;;;;31.03;11.83;;;;;;;5.76;100.00;61416.91;5095512;28;20936;-70
2022/03/27 06:00:20;;;;;;;25.37;11.53;;;;;;;5.88;100.00;61432.78;5095611;28;20490;-72
2022/03/27 06:02:48;;;;;;;28.57;11.10;;;;;;;6.30;100.00;61479.03;5095293;28;20461;-71
2022/03/27 06:05:17;;;;;;;27.20;12.13;;;;;;;6.65;100.00;61511.84;5095458;28;20445;-72
2022/03/27 06:07:48;;;;;;;28.07;11.73;;;;;;;7.11;100.00;61562.94;5095504;28;20456;-71
2022/03/27 06:10:19;;;;;;;32.40;11.40;;;;;;;7.44;100.00;61600.16;5095455;28;20485;-71
2022/03/27 06:12:48;;;;;;;21.80;10.57;;;;;;;7.90;100.00;61651.28;5095434;28;20978;-71
2022/03/27 06:15:15;;;;;;;25.00;10.50;;;;;;;8.26;100.00;61682.19;5095304;28;20444;-72
2022/03/27 06:17:44;;;;;;;35.03;11.47;;;;;;;8.68;100.00;61729.63;5095407;28;20438;-72
2022/03/27 06:20:13;;;;;;;28.50;11.13;;;;;;;9.29;100.00;61794.88;5095265;28;20433;-71
2022/03/27 06:22:42;;;;;;;28.10;12.13;;;;;;;9.58;100.00;61825.34;5095823;28;20287;-71
2022/03/27 06:25:11;;;;;;;28.70;12.50;;;;;;;9.88;100.00;61857.47;5095193;28;20199;-71
2022/03/27 06:27:38;;;;;;;20.40;12.00;;;;;;;10.01;100.00;61870.84;5095230;28;20669;-71
2022/03/27 06:30:10;;;;;;;21.90;10.00;;;;;;;10.49;100.00;61924.28;5095172;28;20312;-71
2022/03/27 06:32:37;;;;;;;18.57;9.60;;;;;;;10.69;91.81;61943.69;5095180;28;20195;-71
2022/03/27 06:35:05;;;;;;;19.53;9.70;;;;;;;10.75;86.41;61950.13;5094929;28;20286;-72
2022/03/27 06:37:33;;;;;;;24.07;10.23;;;;;;;10.62;82.21;61933.66;5095701;28;20200;-71
2022/03/27 06:40:02;;;;;;;34.33;11.27;;;;;;;10.41;83.33;61906.06;5093995;28;20558;-71
2022/03/27 06:42:30;;;;;;;19.87;10.30;;;;;;;10.74;83.22;61946.50;5095042;28;20196;-70
2022/03/27 06:44:57;;;;;;;24.13;11.73;;;;;;;10.81;80.37;61956.00;5094677;28;20203;-72
2022/03/27 06:47:27;;;;;;;22.27;11.17;;;;;;;11.46;77.52;62025.69;5094897;28;20249;-71
2022/03/27 06:49:55;;;;;;;20.10;10.17;;;;;;;11.01;75.93;61978.00;5094240;28;20280;-71
2022/03/27 06:52:23;;;;;;;26.40;10.00;;;;;;;11.71;77.35;62052.00;5094607;28;20199;-73
2022/03/27 06:54:50;;;;;;;31.13;10.73;;;;;;;11.83;74.37;62070.50;5094596;28;20378;-70
2022/03/27 06:57:18;;;;;;;27.57;11.80;;;;;;;11.93;73.24;62075.59;5094269;28;20199;-71
2022/03/27 07:05:18;;;;;;;32.30;12.10;;;;;;;12.49;70.26;62135.69;5094723;28;20691;-72
2022/03/27 07:07:46;;;;;;;29.53;11.93;;;;;;;12.65;66.74;62149.75;5094189;28;20646;-71
2022/03/27 07:10:12;;;;;;;27.33;12.30;;;;;;;12.18;68.08;62107.50;5094125;28;20227;-72
2022/03/27 07:12:39;;;;;;;23.10;12.57;;;;;;;12.07;68.30;62090.59;5096196;28;20196;-72
2022/03/27 07:15:08;;;;;;;21.47;12.80;;;;;;;11.74;67.64;62050.09;5094121;28;20204;-72
2022/03/27 07:17:43;;;;;;;24.77;13.80;;;;;;;11.69;70.53;62049.84;5095299;28;20192;-71
2022/03/27 07:20:12;;;;;;;26.40;13.87;;;;;;;12.00;71.82;62083.09;5094394;28;20203;-73
2022/03/27 07:22:40;;;;;;;24.70;13.20;;;;;;;12.18;71.35;62104.97;5093996;28;20287;-71
2022/03/27 07:25:09;;;;;;;37.50;14.40;;;;;;;12.41;69.17;62124.53;5094392;28;20291;-72
2022/03/27 07:27:37;;;;;;;31.00;13.93;;;;;;;12.98;67.38;62187.22;5094110;28;20196;-72
2022/03/27 07:30:05;;;;;;;33.10;13.63;;;;;;;13.50;66.66;62233.38;5092581;28;20235;-71
2022/03/27 07:32:32;;;;;;;27.80;14.87;;;;;;;13.64;64.91;62260.69;5093666;28;20195;-70
2022/03/27 07:35:01;;;;;;;25.27;13.87;;;;;;;14.13;63.73;62310.25;5093901;28;20245;-71
2022/03/27 07:37:32;;;;;;;26.90;13.20;;;;;;;14.33;60.87;62327.19;5094136;28;20218;-71
2022/03/27 07:40:00;;;;;;;33.00;14.57;;;;;;;14.19;60.55;62319.78;5094495;28;20235;-71
2022/03/27 07:42:29;;;;;;;24.07;13.33;;;;;;;14.85;56.46;62384.59;5094071;28;20570;-71
2022/03/27 07:44:56;;;;;;;29.17;14.60;;;;;;;14.93;57.78;62395.78;5094589;28;20256;-71
2022/03/27 07:47:24;;;;;;;29.60;13.50;;;;;;;15.35;55.00;62440.44;5093372;28;20191;-72
2022/03/27 07:49:51;;;;;;;26.83;13.87;;;;;;;15.27;54.56;62429.78;5093278;28;20651;-72
2022/03/27 07:52:22;;;;;;;22.47;13.40;;;;;;;15.18;55.40;62422.66;5093961;28;20200;-72
2022/03/27 07:54:49;;;;;;;22.63;13.40;;;;;;;15.39;53.99;62442.16;5093506;28;20286;-71
2022/03/27 07:57:16;;;;;;;27.10;13.60;;;;;;;15.33;53.83;62435.72;5093424;28;20256;-71
2022/03/27 07:59:43;;;;;;;20.73;11.63;;;;;;;15.38;54.05;62444.19;5093429;28;20298;-71
2022/03/27 08:02:10;;;;;;;28.67;12.57;;;;;;;15.71;55.59;62477.19;5092333;28;20670;-72
2022/03/27 08:04:36;;;;;;;18.57;10.30;;;;;;;15.81;52.91;62487.41;5093066;28;20195;-72
2022/03/27 08:07:04;;;;;;;19.93;10.27;;;;;;;15.76;52.41;62485.13;5093232;28;20230;-71
2022/03/27 08:09:32;;;;;;;19.73;10.57;;;;;;;15.90;51.05;62497.63;5093470;28;20195;-71
2022/03/27 08:11:59;;;;;;;17.23;9.73;;;;;;;16.02;50.27;62512.56;5092881;28;20199;-71
2022/03/27 08:14:31;;;;;;;22.83;10.97;;;;;;;16.34;49.62;62541.38;5092934;28;20196;-71
2022/03/27 08:16:58;;;;;;;24.20;11.07;;;;;;;16.88;49.10;62604.72;5092980;28;20233;-71
2022/03/27 08:19:27;;;;;;;22.07;10.37;;;;;;;17.06;48.25;62621.00;5092516;28;20203;-72
2022/03/27 08:21:54;;;;;;;20.30;11.10;;;;;;;17.06;47.04;62619.00;5093332;28;20200;-72
2022/03/27 08:24:21;;;;;;;22.30;10.60;;;;;;;16.96;47.55;62613.34;5092758;28;20213;-72
2022/03/27 08:26:59;;;;;;;19.70;10.77;;;;;;;17.27;46.90;62646.75;5092318;28;20211;-72
2022/03/27 08:29:28;;;;;;;23.83;10.10;;;;;;;17.29;46.86;62648.38;5092858;28;20235;-71
2022/03/27 08:31:55;;;;;;;18.63;10.03;;;;;;;17.51;46.78;62672.66;5092733;28;20557;-71
2022/03/27 08:34:23;;;;;;;18.60;9.63;;;;;;;17.80;45.16;62703.41;5092889;28;20202;-71
2022/03/27 08:36:50;;;;;;;25.90;11.33;;;;;;;17.60;46.00;62674.66;5092848;28;20196;-72
2022/03/27 08:39:19;;;;;;;22.70;10.70;;;;;;;17.64;43.69;62684.13;5094914;28;20632;-73
2022/03/27 08:41:54;;;;;;;23.13;9.63;;;;;;;17.54;42.49;62675.38;5094821;28;20237;-70
2022/03/27 08:44:23;;;;;;;27.80;10.37;;;;;;;17.68;43.37;62690.47;5092632;28;20195;-72
2022/03/27 08:46:54;;;;;;;19.33;9.83;;;;;;;17.89;41.97;62710.00;5092156;28;20207;-71
2022/03/27 08:49:30;;;;;;;27.70;11.10;;;;;;;18.09;40.32;62731.59;5092363;28;20195;-71
2022/03/27 08:52:04;;;;;;;21.17;10.67;;;;;;;18.22;40.16;62748.19;5092706;28;20203;-71
2022/03/27 08:54:51;;;;;;;28.07;10.37;;;;;;;18.44;39.79;62771.97;5092264;28;20633;-71
2022/03/27 08:57:25;;;;;;;17.20;9.80;;;;;;;18.91;39.62;62817.00;5092565;28;20256;-71
2022/03/27 08:59:54;;;;;;;23.03;10.43;;;;;;;18.16;38.50;62741.72;5092727;28;20202;-72
2022/03/27 09:02:23;;;;;;;22.40;10.23;;;;;;;18.53;38.96;62786.84;5092107;28;20291;-71
2022/03/27 09:04:53;;;;;;;24.77;10.90;;;;;;;18.89;38.39;62817.44;5092089;28;20653;-71
2022/03/27 09:07:20;;;;;;;22.43;10.20;;;;;;;19.32;38.76;62867.00;5091838;28;20211;-72
2022/03/27 09:09:47;;;;;;;19.07;9.57;;;;;;;19.33;37.90;62865.50;5091776;28;20283;-71
2022/03/27 09:12:16;;;;;;;25.40;10.27;;;;;;;19.85;38.33;62918.56;5092097;28;20656;-71
2022/03/27 09:14:44;;;;;;;19.37;10.83;;;;;;;18.74;37.00;62801.75;5091805;28;20229;-72
2022/03/27 09:17:13;;;;;;;20.20;11.63;;;;;;;19.48;36.80;62888.41;5091832;28;20264;-72
2022/03/27 09:19:43;;;;;;;45.97;13.17;;;;;;;19.37;36.57;62869.28;5091772;28;20578;-72
2022/03/27 09:22:15;;;;;;;62.70;13.27;;;;;;;19.44;36.14;62881.50;5092206;28;20192;-71
2022/03/27 09:24:46;;;;;;;26.67;11.03;;;;;;;19.21;36.26;62854.56;5091890;28;20252;-71
2022/03/27 09:27:13;;;;;;;25.13;10.93;;;;;;;19.34;35.99;62869.16;5092454;28;20572;-72
2022/03/27 09:30:06;;;;;;;19.50;11.30;;;;;;;19.57;35.87;62887.78;5091988;28;20231;-72
2022/03/27 09:32:36;;;;;;;21.33;11.93;;;;;;;19.46;35.80;62881.06;5092609;28;20204;-72
2022/03/27 09:35:08;;;;;;;25.30;11.43;;;;;;;19.66;35.24;62903.19;5091793;28;20203;-72
2022/03/27 09:37:37;;;;;;;27.57;10.87;;;;;;;18.96;35.33;62825.53;5091868;28;20249;-71
2022/03/27 09:40:05;;;;;;;22.23;11.17;;;;;;;18.85;36.22;62813.09;5091856;28;20207;-72
2022/03/27 09:42:32;;;;;;;25.90;10.40;;;;;;;18.72;35.79;62797.03;5091613;28;20218;-71
2022/03/27 09:45:14;;;;;;;26.23;11.20;;;;;;;19.03;36.15;62835.66;5091628;28;20203;-70
2022/03/27 09:47:42;;;;;;;23.87;10.60;;;;;;;19.38;35.58;62872.94;5093000;28;20196;-72
2022/03/27 09:50:09;;;;;;;25.17;12.67;;;;;;;19.35;35.43;62875.44;5091432;28;20297;-70
2022/03/27 09:52:37;;;;;;;24.77;13.23;;;;;;;19.48;35.54;62885.81;5091740;28;20203;-73
2022/03/27 09:55:07;;;;;;;19.17;11.33;;;;;;;19.91;34.96;62929.69;5092347;28;20218;-70
2022/03/27 09:57:35;;;;;;;24.73;10.63;;;;;;;19.93;35.11;62926.69;5091617;28;20654;-71
2022/03/27 10:00:16;;;;;;;20.80;11.33;;;;;;;19.99;34.61;62938.34;5091442;28;20203;-70
2022/03/27 10:02:45;;;;;;;22.10;11.70;;;;;;;19.24;33.93;62852.63;5091821;28;20268;-71
2022/03/27 10:05:13;;;;;;;20.83;10.90;;;;;;;18.72;34.75;62802.19;5091230;28;20203;-72
2022/03/27 10:07:42;;;;;;;21.93;11.07;;;;;;;19.52;34.31;62887.53;5092087;28;20204;-72
2022/03/27 10:10:11;;;;;;;18.67;10.27;;;;;;;19.82;34.01;62922.56;5091064;28;20269;-72
2022/03/27 10:12:39;;;;;;;20.53;11.10;;;;;;;20.50;33.52;62993.50;5091230;28;20206;-71
2022/03/27 10:15:08;;;;;;;27.73;10.87;;;;;;;20.24;33.03;62965.38;5091512;28;20256;-71
2022/03/27 10:17:39;;;;;;;25.47;10.40;;;;;;;20.48;32.43;62990.78;5091482;28;20195;-72
2022/03/27 10:20:09;;;;;;;19.30;9.93;;;;;;;20.80;32.39;63028.53;5091380;28;20195;-73
2022/03/27 10:22:40;;;;;;;19.10;9.93;;;;;;;21.01;32.24;63048.69;5091384;28;20694;-71
2022/03/27 10:25:09;;;;;;;27.10;9.70;;;;;;;21.43;31.41;63093.06;5091829;28;20282;-73
2022/03/27 10:27:37;;;;;;;19.40;9.23;;;;;;;21.23;31.55;63071.41;5094969;28;20282;-72
2022/03/27 10:30:05;;;;;;;14.37;9.27;;;;;;;21.59;31.14;63110.38;5094721;28;20695;-72
2022/03/27 10:32:34;;;;;;;15.27;9.83;;;;;;;20.75;31.58;63020.53;5095110;28;20195;-73
2022/03/27 10:35:19;;;;;;;14.37;8.97;;;;;;;20.93;31.43;63042.59;5094790;28;20253;-72
2022/03/27 10:37:58;;;;;;;20.47;10.03;;;;;;;21.35;31.31;63084.41;5094801;28;20256;-72
2022/03/27 10:40:33;;;;;;;17.13;8.73;;;;;;;20.90;31.07;63041.41;5094646;28;20203;-71
2022/03/27 10:43:10;;;;;;;20.93;9.23;;;;;;;21.43;30.92;63093.06;5094654;28;20722;-72
2022/03/27 10:45:38;;;;;;;17.07;8.80;;;;;;;21.02;30.65;63047.19;5095049;28;20286;-71
2022/03/27 10:48:16;;;;;;;15.33;8.60;;;;;;;21.31;30.80;63075.41;5094698;28;20199;-71
2022/03/27 10:50:53;;;;;;;20.50;9.73;;;;;;;21.20;29.97;63071.31;5094742;28;20231;-72
2022/03/27 10:53:23;;;;;;;19.50;9.07;;;;;;;21.52;29.92;63108.00;5095228;28;20644;-72
2022/03/27 10:55:52;;;;;;;13.93;8.20;;;;;;;22.00;29.83;63154.78;5094432;28;20290;-74
2022/03/27 10:58:35;;;;;;;17.97;8.97;;;;;;;22.54;29.57;63212.75;5094442;28;20202;-73
2022/03/27 11:01:05;;;;;;;16.40;8.77;;;;;;;22.88;28.83;63243.88;5094590;28;20580;-72
2022/03/27 11:03:51;;;;;;;17.80;9.13;;;;;;;23.11;28.97;63274.00;5094807;28;20273;-73
2022/03/27 11:06:27;;;;;;;14.03;8.20;;;;;;;22.67;28.77;63226.84;5094894;28;20219;-73
2022/03/27 11:08:55;;;;;;;17.43;9.17;;;;;;;22.17;29.35;63168.03;5094535;28;20714;-73
2022/03/27 11:12:02;;;;;;;29.63;9.43;;;;;;;22.41;28.93;63198.66;5094406;28;20292;-72
2022/03/27 11:15:02;;;;;;;22.00;9.27;;;;;;;22.46;29.16;63204.06;5094974;28;20203;-71
2022/03/27 11:17:52;;;;;;;16.37;8.63;;;;;;;22.90;28.59;63248.66;5094199;28;20265;-72
2022/03/27 11:20:52;;;;;;;13.90;7.87;;;;;;;22.61;28.76;63220.34;5094745;28;20566;-72
2022/03/27 11:23:43;;;;;;;16.10;8.93;;;;;;;23.31;28.12;63293.09;5092924;28;20652;-70
2022/03/27 11:26:34;;;;;;;16.33;8.70;;;;;;;22.81;28.11;63238.88;5094065;28;20199;-72
2022/03/27 11:29:04;;;;;;;17.60;7.97;;;;;;;22.84;27.79;63239.53;5093464;28;20713;-71
2022/03/27 11:31:33;;;;;;;17.87;8.20;;;;;;;22.30;27.96;63186.75;5093908;28;20236;-73
2022/03/27 11:34:20;;;;;;;17.77;7.83;;;;;;;21.73;27.72;63128.13;5094184;28;20200;-70
2022/03/27 11:36:51;;;;;;;11.23;7.40;;;;;;;21.71;28.39;63123.38;5093660;28;20195;-72